createdAt,value
2022-09-15T00:01:10.372Z,12.80
2022-09-15T00:03:38.071Z,12.80
2022-09-15T00:06:06.447Z,12.80
2022-09-15T00:08:33.436Z,12.80
2022-09-15T00:11:18.782Z,12.80
2022-09-15T00:13:46.365Z,12.80
2022-09-15T00:16:15.403Z,12.80
2022-09-15T00:18:45.033Z,12.80
2022-09-15T00:21:20.114Z,12.80
2022-09-15T00:23:48.792Z,12.80
2022-09-15T00:26:19.565Z,12.90
2022-09-15T00:28:47.331Z,12.90
2022-09-15T00:31:18.387Z,12.90
2022-09-15T00:33:53.850Z,13.00
2022-09-15T00:36:22.393Z,13.00
2022-09-15T00:38:49.933Z,13.00
2022-09-15T00:41:20.823Z,13.00
2022-09-15T00:44:04.179Z,13.00
2022-09-15T00:46:32.832Z,13.00
2022-09-15T00:49:09.832Z,12.90
2022-09-15T00:51:57.760Z,12.90
2022-09-15T00:54:35.560Z,12.90
2022-09-15T00:57:08.614Z,12.90
2022-09-15T00:59:39.299Z,12.90
2022-09-15T01:02:30.543Z,12.90
2022-09-15T01:04:58.926Z,12.90
2022-09-15T01:07:38.974Z,12.90
2022-09-15T01:10:15.296Z,13.00
2022-09-15T01:12:42.781Z,13.00
2022-09-15T01:15:09.977Z,13.00
2022-09-15T01:17:44.781Z,13.00
2022-09-15T01:20:51.492Z,13.00
2022-09-15T01:23:37.059Z,13.00
2022-09-15T01:26:42.479Z,13.00
2022-09-15T01:29:42.949Z,13.00
2022-09-15T01:32:56.534Z,13.00
2022-09-15T01:35:49.097Z,13.00
2022-09-15T01:38:22.717Z,13.00
2022-09-15T01:41:19.812Z,13.10
2022-09-15T01:44:05.980Z,13.10
2022-09-15T01:46:46.843Z,13.10
2022-09-15T01:49:19.833Z,13.20
2022-09-15T01:51:48.699Z,13.20
2022-09-15T01:54:19.111Z,13.30
2022-09-15T01:56:46.454Z,13.30
2022-09-15T01:59:13.453Z,13.30
2022-09-15T02:01:53.083Z,13.30
2022-09-15T02:04:21.696Z,13.30
2022-09-15T02:06:56.636Z,13.40
2022-09-15T02:09:30.825Z,13.40
2022-09-15T02:12:14.955Z,13.40
2022-09-15T02:14:57.935Z,13.40
2022-09-15T02:17:29.109Z,13.40
2022-09-15T02:20:35.229Z,13.40
2022-09-15T02:23:16.146Z,13.40
2022-09-15T02:25:49.426Z,13.40
2022-09-15T02:28:21.419Z,13.40
2022-09-15T02:30:49.981Z,13.50
2022-09-15T02:33:21.228Z,13.50
2022-09-15T02:35:48.244Z,13.50
2022-09-15T02:38:15.629Z,13.50
2022-09-15T02:40:44.786Z,13.50
2022-09-15T02:43:16.135Z,13.50
2022-09-15T02:45:43.566Z,13.50
2022-09-15T02:48:10.534Z,13.60
2022-09-15T02:50:38.692Z,13.60
2022-09-15T02:53:05.753Z,13.60
2022-09-15T02:55:32.943Z,13.60
2022-09-15T02:58:00.159Z,13.60
2022-09-15T03:00:28.404Z,13.60
2022-09-15T03:02:56.106Z,13.60
2022-09-15T03:05:29.922Z,13.60
2022-09-15T03:07:57.414Z,13.60
2022-09-15T03:10:25.936Z,13.60
2022-09-15T03:12:54.489Z,13.60
2022-09-15T03:15:25.462Z,13.60
2022-09-15T03:17:53.906Z,13.60
2022-09-15T03:20:28.202Z,13.60
2022-09-15T03:22:55.287Z,13.60
2022-09-15T03:25:22.637Z,13.60
2022-09-15T03:27:49.562Z,13.60
2022-09-15T03:30:16.579Z,13.70
2022-09-15T03:32:43.449Z,13.60
2022-09-15T03:35:10.373Z,13.60
2022-09-15T03:37:37.374Z,13.60
2022-09-15T03:40:05.224Z,13.60
2022-09-15T03:42:32.362Z,13.60
2022-09-15T03:44:59.316Z,13.60
2022-09-15T03:47:26.392Z,13.60
2022-09-15T03:49:53.285Z,13.60
2022-09-15T03:52:20.177Z,13.50
2022-09-15T03:54:48.866Z,13.50
2022-09-15T03:57:15.738Z,13.50
2022-09-15T03:59:42.627Z,13.50
2022-09-15T04:02:09.569Z,13.50
2022-09-15T04:04:36.824Z,13.50
2022-09-15T04:07:03.721Z,13.50
2022-09-15T04:09:31.344Z,13.50
2022-09-15T04:11:58.324Z,13.50
2022-09-15T04:14:25.252Z,13.50
2022-09-15T04:16:52.361Z,13.50
2022-09-15T04:19:19.256Z,13.40
2022-09-15T04:21:47.439Z,13.40
2022-09-15T04:24:14.597Z,13.40
2022-09-15T04:26:41.522Z,13.40
2022-09-15T04:29:14.507Z,13.40
2022-09-15T04:31:41.819Z,13.50
2022-09-15T04:34:10.200Z,13.50
2022-09-15T04:36:37.581Z,13.40
2022-09-15T04:39:06.558Z,13.40
2022-09-15T04:41:34.184Z,13.40
2022-09-15T04:44:01.500Z,13.40
2022-09-15T04:46:28.676Z,13.40
2022-09-15T04:48:56.617Z,13.30
2022-09-15T04:51:24.979Z,13.30
2022-09-15T04:53:52.152Z,13.30
2022-09-15T04:56:23.959Z,13.20
2022-09-15T04:59:03.267Z,13.20
2022-09-15T05:01:34.510Z,13.10
2022-09-15T05:04:04.100Z,13.20
2022-09-15T05:06:32.505Z,13.20
2022-09-15T05:08:59.502Z,13.20
2022-09-15T05:11:28.353Z,13.30
2022-09-15T05:13:55.459Z,13.30
2022-09-15T05:16:25.407Z,13.30
2022-09-15T05:18:55.769Z,13.30
2022-09-15T05:21:24.077Z,13.40
2022-09-15T05:23:54.628Z,13.40
2022-09-15T05:26:25.752Z,13.40
2022-09-15T05:28:53.530Z,13.50
2022-09-15T05:31:27.049Z,13.50
2022-09-15T05:33:54.837Z,13.50
2022-09-15T05:36:25.403Z,13.50
2022-09-15T05:38:56.822Z,13.60
2022-09-15T05:41:25.989Z,13.60
2022-09-15T05:43:57.013Z,13.60
2022-09-15T05:46:26.108Z,13.70
2022-09-15T05:48:56.909Z,13.70
2022-09-15T05:51:24.482Z,13.70
2022-09-15T05:53:51.574Z,13.80
2022-09-15T05:56:19.298Z,13.80
2022-09-15T05:58:48.544Z,13.90
2022-09-15T06:01:30.028Z,13.90
2022-09-15T06:03:58.467Z,13.90
2022-09-15T06:06:26.422Z,14.00
2022-09-15T06:08:58.936Z,13.90
2022-09-15T06:11:32.747Z,14.00
2022-09-15T06:14:02.816Z,14.00
2022-09-15T06:16:33.881Z,14.00
2022-09-15T06:19:01.654Z,14.10
2022-09-15T06:21:30.397Z,14.10
2022-09-15T06:24:00.186Z,14.10
2022-09-15T06:26:28.721Z,14.10
2022-09-15T06:29:01.689Z,14.00
2022-09-15T06:31:31.793Z,14.10
2022-09-15T06:33:59.576Z,14.20
2022-09-15T06:36:29.033Z,14.20
2022-09-15T06:38:56.329Z,14.30
2022-09-15T06:41:23.568Z,14.30
2022-09-15T06:43:50.945Z,14.40
2022-09-15T06:46:26.437Z,14.40
2022-09-15T06:48:53.623Z,14.50
2022-09-15T06:51:25.057Z,14.60
2022-09-15T06:53:53.627Z,14.70
2022-09-15T06:56:23.143Z,14.80
2022-09-15T06:58:50.531Z,14.80
2022-09-15T07:01:28.202Z,14.90
2022-09-15T07:03:56.636Z,14.90
2022-09-15T07:06:23.732Z,14.90
2022-09-15T07:08:51.108Z,14.90
2022-09-15T07:11:18.571Z,14.90
2022-09-15T07:13:45.845Z,14.90
2022-09-15T07:16:14.000Z,15.00
2022-09-15T07:18:43.487Z,15.00
2022-09-15T07:21:18.520Z,15.00
2022-09-15T07:23:46.006Z,15.10
2022-09-15T07:26:20.535Z,15.20
2022-09-15T07:29:01.490Z,15.30
2022-09-15T07:31:31.411Z,15.40
2022-09-15T07:34:02.450Z,15.60
2022-09-15T07:36:30.751Z,15.70
2022-09-15T07:38:58.565Z,15.80
2022-09-15T07:41:29.398Z,15.90
2022-09-15T07:43:59.406Z,16.00
2022-09-15T07:46:30.506Z,16.00
2022-09-15T07:48:57.469Z,16.00
2022-09-15T07:51:25.686Z,16.00
2022-09-15T07:53:53.996Z,16.00
2022-09-15T07:56:22.069Z,16.10
2022-09-15T07:58:49.370Z,16.20
2022-09-15T08:01:17.791Z,16.30
2022-09-15T08:03:50.779Z,16.40
2022-09-15T08:06:23.629Z,16.50
2022-09-15T08:08:59.255Z,16.70
2022-09-15T08:11:27.577Z,16.90
2022-09-15T08:13:54.515Z,17.00
2022-09-15T08:16:24.635Z,17.10
2022-09-15T08:18:55.348Z,17.10
2022-09-15T08:21:22.855Z,17.20
2022-09-15T08:23:58.959Z,17.20
2022-09-15T08:26:27.792Z,17.10
2022-09-15T08:28:54.721Z,17.10
2022-09-15T08:31:24.137Z,17.00
2022-09-15T08:33:54.320Z,17.00
2022-09-15T08:36:22.237Z,17.00
2022-09-15T08:38:49.168Z,17.10
2022-09-15T08:41:39.596Z,17.10
2022-09-15T08:44:43.559Z,17.10
2022-09-15T08:47:16.982Z,17.10
2022-09-15T08:50:10.276Z,17.40
2022-09-15T08:52:46.282Z,17.50
2022-09-15T08:55:27.985Z,17.50
2022-09-15T08:57:55.168Z,17.40
2022-09-15T09:00:23.070Z,17.40
2022-09-15T09:03:10.618Z,17.40
2022-09-15T09:06:28.071Z,17.30
2022-09-15T09:09:27.911Z,17.30
2022-09-15T09:12:18.571Z,17.50
2022-09-15T09:15:24.227Z,17.80
2022-09-15T09:18:15.210Z,18.10
2022-09-15T09:21:10.160Z,18.10
2022-09-15T09:24:07.620Z,18.20
2022-09-15T09:26:40.269Z,18.30
2022-09-15T09:29:18.563Z,18.50
2022-09-15T09:31:53.497Z,18.70
2022-09-15T09:34:57.084Z,18.70
2022-09-15T09:37:24.747Z,18.90
2022-09-15T09:39:51.643Z,19.20
2022-09-15T09:42:19.374Z,19.70
2022-09-15T09:44:47.394Z,20.00
2022-09-15T09:47:17.213Z,20.30
2022-09-15T09:49:52.368Z,20.40
2022-09-15T09:52:39.614Z,20.40
2022-09-15T09:55:18.689Z,20.50
2022-09-15T09:57:45.587Z,20.40
2022-09-15T10:00:35.954Z,20.50
2022-09-15T10:03:22.418Z,20.50
2022-09-15T10:06:16.306Z,20.50
2022-09-15T10:08:59.533Z,20.60
2022-09-15T10:12:00.396Z,20.40
2022-09-15T10:14:30.202Z,20.30
2022-09-15T10:17:15.487Z,20.30
2022-09-15T10:19:50.369Z,20.30
2022-09-15T10:22:38.013Z,20.10
2022-09-15T10:25:39.563Z,19.80
2022-09-15T10:28:23.051Z,19.70
2022-09-15T10:31:00.599Z,19.70
2022-09-15T10:33:35.527Z,19.80
2022-09-15T10:36:13.174Z,20.00
2022-09-15T10:38:44.921Z,20.20
2022-09-15T10:41:32.431Z,20.40
2022-09-15T10:44:46.066Z,20.70
2022-09-15T10:47:35.962Z,20.90
2022-09-15T10:50:12.096Z,21.10
2022-09-15T10:53:36.741Z,20.90
2022-09-15T10:56:35.173Z,20.70
2022-09-15T10:59:16.330Z,20.50
2022-09-15T11:02:10.776Z,20.30
2022-09-15T11:05:21.993Z,20.20
2022-09-15T11:08:32.122Z,20.00
2022-09-15T11:11:18.138Z,19.90
2022-09-15T11:14:07.349Z,19.70
2022-09-15T11:17:19.705Z,19.60
2022-09-15T11:19:58.535Z,19.60
2022-09-15T11:22:34.349Z,19.60
2022-09-15T11:25:25.205Z,19.50
2022-09-15T11:28:26.565Z,19.50
2022-09-15T11:30:58.338Z,19.50
2022-09-15T11:33:37.980Z,19.50
2022-09-15T11:36:38.222Z,19.50
2022-09-15T11:39:14.394Z,19.30
2022-09-15T11:42:01.109Z,19.30
2022-09-15T11:44:41.476Z,19.30
2022-09-15T11:47:32.440Z,19.20
2022-09-15T11:50:11.290Z,19.30
2022-09-15T11:53:19.537Z,19.30
2022-09-15T11:56:22.913Z,19.30
2022-09-15T11:59:19.210Z,19.40
2022-09-15T12:02:22.755Z,19.50
2022-09-15T12:05:15.581Z,19.70
2022-09-15T12:08:07.176Z,20.30
2022-09-15T12:10:42.999Z,20.70
2022-09-15T12:13:19.896Z,20.90
2022-09-15T12:15:48.641Z,20.90
2022-09-15T12:18:42.854Z,21.00
2022-09-15T12:21:26.415Z,21.00
2022-09-15T12:24:10.762Z,21.10
2022-09-15T12:26:38.353Z,21.00
2022-09-15T12:29:29.884Z,20.90
2022-09-15T12:32:34.863Z,21.00
2022-09-15T12:35:19.621Z,21.10
2022-09-15T12:37:55.533Z,21.10
2022-09-15T12:40:33.430Z,21.00
2022-09-15T12:43:15.969Z,21.00
2022-09-15T12:45:54.685Z,21.00
2022-09-15T12:48:36.826Z,21.10
2022-09-15T12:51:07.153Z,21.00
2022-09-15T12:54:02.720Z,21.00
2022-09-15T12:56:33.448Z,21.00
2022-09-15T12:59:06.870Z,20.90
2022-09-15T13:01:48.814Z,21.40
2022-09-15T13:04:42.394Z,21.90
2022-09-15T13:07:15.412Z,22.10
2022-09-15T13:10:22.637Z,22.20
2022-09-15T13:13:07.569Z,22.10
2022-09-15T13:15:36.534Z,22.30
2022-09-15T13:18:05.785Z,22.30
2022-09-15T13:20:36.622Z,22.40
2022-09-15T13:23:07.646Z,22.50
2022-09-15T13:25:36.265Z,22.60
2022-09-15T13:28:04.422Z,22.80
2022-09-15T13:30:57.360Z,22.70
2022-09-15T13:40:22.311Z,21.40
2022-09-15T13:43:41.718Z,21.30
2022-09-15T13:46:26.189Z,21.40
2022-09-15T13:49:30.124Z,21.50
2022-09-15T13:52:07.450Z,21.30
2022-09-15T13:54:34.438Z,21.20
2022-09-15T13:57:02.835Z,21.10
2022-09-15T13:59:32.760Z,20.90
2022-09-15T14:02:00.727Z,20.90
2022-09-15T14:04:31.385Z,20.70
2022-09-15T14:07:01.720Z,20.60
2022-09-15T14:09:49.462Z,20.60
2022-09-15T14:12:18.228Z,20.50
2022-09-15T14:14:53.729Z,20.30
2022-09-15T14:17:27.363Z,20.20
2022-09-15T14:19:57.752Z,20.30
2022-09-15T14:22:31.697Z,20.10
2022-09-15T14:25:06.057Z,20.10
2022-09-15T14:27:36.162Z,20.10
2022-09-15T14:30:08.266Z,20.10
2022-09-15T14:32:46.841Z,20.00
2022-09-15T14:35:20.177Z,20.00
2022-09-15T14:37:56.642Z,20.00
2022-09-15T14:40:34.809Z,20.10
2022-09-15T14:43:03.030Z,20.10
2022-09-15T14:48:30.720Z,20.30
2022-09-15T14:51:19.473Z,20.30
2022-09-15T14:53:47.745Z,20.40
2022-09-15T14:56:29.826Z,20.40
2022-09-15T14:59:04.184Z,20.40
2022-09-15T15:01:40.986Z,20.30
2022-09-15T15:04:34.939Z,20.10
2022-09-15T15:07:04.958Z,19.90
2022-09-15T15:09:41.482Z,19.80
2022-09-15T15:12:25.915Z,19.70
2022-09-15T15:14:55.149Z,19.50
2022-09-15T15:17:27.428Z,19.30
2022-09-15T15:20:01.085Z,19.10
2022-09-15T15:22:28.510Z,19.00
2022-09-15T15:24:56.288Z,19.00
2022-09-15T15:27:41.108Z,18.80
2022-09-15T15:30:36.377Z,18.70
2022-09-15T15:33:09.207Z,18.60
2022-09-15T15:35:36.298Z,18.70
2022-09-15T15:38:18.407Z,18.80
2022-09-15T15:40:46.862Z,19.00
2022-09-15T15:43:22.184Z,19.20
2022-09-15T15:46:01.229Z,19.40
2022-09-15T15:48:37.835Z,19.60
2022-09-15T15:51:06.783Z,19.60
2022-09-15T15:53:34.514Z,19.60
2022-09-15T15:56:01.656Z,19.60
2022-09-15T15:58:28.698Z,19.50
2022-09-15T16:00:57.230Z,19.50
2022-09-15T16:03:25.218Z,19.50
2022-09-15T16:05:59.891Z,19.40
2022-09-15T16:08:33.488Z,19.40
2022-09-15T16:11:02.174Z,19.40
2022-09-15T16:13:29.776Z,19.30
2022-09-15T16:16:00.462Z,19.20
2022-09-15T16:18:29.008Z,19.10
2022-09-15T16:20:55.914Z,18.90
2022-09-15T16:23:23.484Z,18.60
2022-09-15T16:26:11.522Z,18.50
2022-09-15T16:28:38.423Z,18.50
2022-09-15T16:31:05.595Z,18.50
2022-09-15T16:33:36.003Z,18.50
2022-09-15T16:36:08.613Z,18.50
2022-09-15T16:38:36.813Z,18.60
2022-09-15T16:41:09.698Z,18.60
2022-09-15T16:43:36.629Z,18.50
2022-09-15T16:46:06.799Z,18.50
2022-09-15T16:48:34.315Z,18.40
2022-09-15T16:51:23.050Z,18.40
2022-09-15T16:53:48.691Z,18.30
2022-09-15T16:56:16.115Z,18.20
2022-09-15T16:58:44.045Z,18.00
2022-09-15T17:01:21.903Z,18.00
2022-09-15T17:03:49.120Z,17.90
2022-09-15T17:06:18.089Z,17.80
2022-09-15T17:08:45.746Z,17.70
2022-09-15T17:11:16.828Z,17.70
2022-09-15T17:13:44.772Z,17.60
2022-09-15T17:16:15.391Z,17.60
2022-09-15T17:18:42.388Z,17.60
2022-09-15T17:21:12.137Z,17.50
2022-09-15T17:23:43.258Z,17.40
2022-09-15T17:26:13.884Z,17.40
2022-09-15T17:28:42.259Z,17.40
2022-09-15T17:31:15.516Z,17.30
2022-09-15T17:33:43.608Z,17.20
2022-09-15T17:36:11.301Z,17.20
2022-09-15T17:38:41.093Z,17.10
2022-09-15T17:41:18.223Z,17.10
2022-09-15T17:43:45.859Z,17.00
2022-09-15T17:46:13.056Z,17.00
2022-09-15T17:48:40.236Z,16.90
2022-09-15T17:51:10.105Z,16.90
2022-09-15T17:53:37.157Z,16.90
2022-09-15T17:56:04.200Z,16.80
2022-09-15T17:58:31.913Z,16.80
2022-09-15T18:00:59.450Z,16.70
2022-09-15T18:03:30.308Z,16.60
2022-09-15T18:05:59.903Z,16.60
2022-09-15T18:08:27.943Z,16.60
2022-09-15T18:10:55.354Z,16.50
2022-09-15T18:13:27.226Z,16.50
2022-09-15T18:15:55.061Z,16.50
2022-09-15T18:18:28.773Z,16.50
2022-09-15T18:20:57.976Z,16.40
2022-09-15T18:23:28.399Z,16.40
2022-09-15T18:25:55.692Z,16.40
2022-09-15T18:28:22.602Z,16.30
2022-09-15T18:30:51.019Z,16.30
2022-09-15T18:33:24.393Z,16.30
2022-09-15T18:35:54.907Z,16.30
2022-09-15T18:38:22.678Z,16.20
2022-09-15T18:40:54.135Z,16.20
2022-09-15T18:43:23.273Z,16.20
2022-09-15T18:45:50.434Z,16.10
2022-09-15T18:48:17.546Z,16.10
2022-09-15T18:50:45.159Z,16.10
2022-09-15T18:53:12.795Z,16.10
2022-09-15T18:55:43.664Z,16.10
2022-09-15T18:58:12.025Z,16.00
2022-09-15T19:00:39.954Z,16.00
2022-09-15T19:03:14.121Z,16.00
2022-09-15T19:05:41.474Z,16.00
2022-09-15T19:08:09.153Z,16.10
2022-09-15T19:10:38.323Z,16.00
2022-09-15T19:13:05.371Z,16.00
2022-09-15T19:15:34.531Z,16.00
2022-09-15T19:18:02.088Z,16.00
2022-09-15T19:20:29.275Z,16.00
2022-09-15T19:22:58.123Z,16.00
2022-09-15T19:25:25.146Z,16.00
2022-09-15T19:27:52.177Z,16.00
2022-09-15T19:30:19.139Z,16.00
2022-09-15T19:32:46.256Z,16.00
2022-09-15T19:35:13.582Z,16.00
2022-09-15T19:37:42.413Z,16.00
2022-09-15T19:40:12.937Z,16.00
2022-09-15T19:42:41.902Z,15.90
2022-09-15T19:45:11.111Z,15.90
2022-09-15T19:47:39.086Z,15.90
2022-09-15T19:50:08.144Z,15.90
2022-09-15T19:52:35.223Z,15.80
2022-09-15T19:55:02.286Z,15.80
2022-09-15T19:57:29.376Z,15.70
2022-09-15T19:59:57.468Z,15.70
2022-09-15T20:02:24.572Z,15.70
2022-09-15T20:04:53.043Z,15.60
2022-09-15T20:07:19.995Z,15.60
2022-09-15T20:09:47.510Z,15.60
2022-09-15T20:12:14.535Z,15.60
2022-09-15T20:14:41.571Z,15.60
2022-09-15T20:17:08.578Z,15.60
2022-09-15T20:19:36.843Z,15.60
2022-09-15T20:22:04.455Z,15.60
2022-09-15T20:24:31.402Z,15.60
2022-09-15T20:26:59.276Z,15.50
2022-09-15T20:29:26.338Z,15.50
2022-09-15T20:31:53.458Z,15.50
2022-09-15T20:34:20.524Z,15.40
2022-09-15T20:36:47.442Z,15.40
2022-09-15T20:39:15.871Z,15.40
2022-09-15T20:41:46.354Z,15.50
2022-09-15T20:44:14.315Z,15.50
2022-09-15T20:46:41.733Z,15.40
2022-09-15T20:49:09.375Z,15.40
2022-09-15T20:51:36.401Z,15.40
2022-09-15T20:54:04.458Z,15.40
2022-09-15T20:56:35.127Z,15.40
2022-09-15T20:59:03.724Z,15.30
2022-09-15T21:01:37.395Z,15.30
2022-09-15T21:04:06.715Z,15.30
2022-09-15T21:06:34.200Z,15.20
2022-09-15T21:09:01.220Z,15.20
2022-09-15T21:11:29.133Z,15.20
2022-09-15T21:13:56.888Z,15.20
2022-09-15T21:16:27.443Z,15.20
2022-09-15T21:18:56.336Z,15.20
2022-09-15T21:21:32.405Z,15.20
2022-09-15T21:24:03.938Z,15.10
2022-09-15T21:26:34.658Z,15.10
2022-09-15T21:29:02.184Z,15.10
2022-09-15T21:31:32.841Z,15.10
2022-09-15T21:34:00.253Z,15.10
2022-09-15T21:36:31.103Z,15.10
2022-09-15T21:38:59.469Z,15.10
2022-09-15T21:41:32.178Z,15.10
2022-09-15T21:44:00.672Z,15.10
2022-09-15T21:46:30.418Z,15.10
2022-09-15T21:48:59.454Z,15.10
2022-09-15T21:51:28.698Z,15.10
2022-09-15T21:53:57.761Z,15.10
2022-09-15T21:56:27.410Z,15.10
2022-09-15T21:58:54.584Z,15.10
2022-09-15T22:01:31.371Z,15.20
2022-09-15T22:04:07.390Z,15.20
2022-09-15T22:06:37.569Z,15.20
2022-09-15T22:09:13.127Z,15.20
2022-09-15T22:11:40.619Z,15.20
2022-09-15T22:14:08.315Z,15.20
2022-09-15T22:16:38.203Z,15.20
2022-09-15T22:19:07.091Z,15.10
2022-09-15T22:21:36.914Z,15.10
2022-09-15T22:24:07.005Z,15.10
2022-09-15T22:26:37.406Z,15.10
2022-09-15T22:29:05.959Z,15.10
2022-09-15T22:31:33.727Z,15.10
2022-09-15T22:34:00.644Z,15.10
2022-09-15T22:36:30.535Z,15.10
2022-09-15T22:39:04.398Z,15.10
2022-09-15T22:41:37.298Z,15.00
2022-09-15T22:44:06.410Z,15.00
2022-09-15T22:46:33.413Z,14.90
2022-09-15T22:49:00.336Z,14.80
2022-09-15T22:51:27.269Z,14.80
2022-09-15T22:53:57.261Z,14.80
2022-09-15T22:56:26.243Z,14.70
2022-09-15T22:58:53.954Z,14.70
2022-09-15T23:01:24.650Z,14.70
2022-09-15T23:03:57.150Z,14.70
2022-09-15T23:06:26.095Z,14.70
2022-09-15T23:08:59.073Z,14.70
2022-09-15T23:11:29.045Z,14.70
2022-09-15T23:13:56.493Z,14.70
2022-09-15T23:16:25.242Z,14.70
2022-09-15T23:18:53.363Z,14.70
2022-09-15T23:21:21.110Z,14.70
2022-09-15T23:23:49.258Z,14.60
2022-09-15T23:26:22.569Z,14.60
2022-09-15T23:28:49.757Z,14.60
2022-09-15T23:31:17.421Z,14.60
2022-09-15T23:33:45.176Z,14.60
2022-09-15T23:36:16.021Z,14.60
2022-09-15T23:38:45.376Z,14.60
2022-09-15T23:41:14.155Z,14.60
2022-09-15T23:43:41.841Z,14.60
2022-09-15T23:46:09.746Z,14.50
2022-09-15T23:48:37.567Z,14.50
2022-09-15T23:51:05.571Z,14.50
2022-09-15T23:53:32.671Z,14.50
2022-09-15T23:55:59.594Z,14.50
2022-09-15T23:58:26.915Z,14.40
